createdAt,value
2022-12-13T00:01:21.836Z,16.77
2022-12-13T00:03:49.995Z,16.90
2022-12-13T00:06:17.721Z,16.10
2022-12-13T00:08:45.769Z,16.43
2022-12-13T00:11:14.124Z,17.40
2022-12-13T00:13:43.065Z,16.53
2022-12-13T00:16:13.130Z,16.30
2022-12-13T00:18:42.898Z,15.90
2022-12-13T00:21:13.922Z,15.47
2022-12-13T00:23:42.012Z,15.80
2022-12-13T00:26:12.260Z,16.10
2022-12-13T00:28:40.187Z,16.20
2022-12-13T00:31:43.583Z,16.83
2022-12-13T00:33:58.292Z,15.80
2022-12-13T00:36:26.242Z,15.93
2022-12-13T00:39:02.027Z,15.97
2022-12-13T00:41:30.820Z,15.80
2022-12-13T00:43:59.146Z,16.23
2022-12-13T00:46:27.152Z,16.37
2022-12-13T00:48:56.420Z,16.30
2022-12-13T00:51:25.870Z,16.03
2022-12-13T00:53:54.346Z,15.80
2022-12-13T00:56:23.603Z,15.00
2022-12-13T00:58:52.347Z,16.33
2022-12-13T01:01:21.486Z,16.03
2022-12-13T01:03:49.876Z,15.07
2022-12-13T01:06:19.852Z,15.20
2022-12-13T01:08:49.074Z,15.57
2022-12-13T01:11:17.001Z,16.37
2022-12-13T01:13:45.282Z,17.07
2022-12-13T01:16:13.650Z,16.20
2022-12-13T01:18:42.113Z,15.67
2022-12-13T01:21:12.059Z,16.70
2022-12-13T01:23:40.527Z,16.40
2022-12-13T01:26:10.600Z,16.00
2022-12-13T01:28:38.725Z,15.00
2022-12-13T01:31:07.476Z,20.30
2022-12-13T01:33:35.317Z,19.40
2022-12-13T01:36:03.108Z,19.50
2022-12-13T01:38:31.253Z,18.27
2022-12-13T01:41:17.212Z,19.60
2022-12-13T01:43:56.164Z,17.80
2022-12-13T01:46:24.466Z,18.87
2022-12-13T01:48:55.712Z,19.40
2022-12-13T01:51:27.714Z,18.93
2022-12-13T01:53:55.715Z,18.07
2022-12-13T01:56:26.582Z,18.40
2022-12-13T01:58:55.630Z,17.83
2022-12-13T02:01:23.501Z,18.70
2022-12-13T02:03:51.775Z,18.50
2022-12-13T02:06:20.496Z,17.60
2022-12-13T02:08:48.177Z,17.40
2022-12-13T02:11:15.860Z,17.37
2022-12-13T02:13:43.632Z,17.60
2022-12-13T02:16:22.109Z,17.83
2022-12-13T02:18:58.844Z,17.40
2022-12-13T02:21:32.217Z,17.23
2022-12-13T02:24:36.225Z,18.40
2022-12-13T02:27:10.770Z,18.80
2022-12-13T02:30:08.339Z,17.73
2022-12-13T02:32:39.604Z,17.60
2022-12-13T02:35:10.636Z,18.33
2022-12-13T02:37:44.868Z,17.60
2022-12-13T02:40:16.678Z,16.40
2022-12-13T02:42:47.157Z,17.30
2022-12-13T02:45:20.521Z,17.70
2022-12-13T02:47:50.051Z,15.57
2022-12-13T02:50:18.287Z,16.10
2022-12-13T02:52:46.724Z,15.77
2022-12-13T02:55:16.293Z,16.27
2022-12-13T02:57:45.126Z,16.97
2022-12-13T03:00:16.122Z,16.30
2022-12-13T03:02:47.617Z,17.03
2022-12-13T03:05:50.088Z,15.67
2022-12-13T03:08:21.985Z,15.17
2022-12-13T03:10:54.932Z,15.80
2022-12-13T03:13:38.158Z,15.87
2022-12-13T03:16:23.454Z,16.63
2022-12-13T03:18:51.699Z,15.73
2022-12-13T03:21:21.138Z,15.40
2022-12-13T03:23:48.805Z,16.10
2022-12-13T03:26:18.459Z,15.53
2022-12-13T03:28:46.189Z,15.93
2022-12-13T03:31:14.527Z,15.27
2022-12-13T03:33:42.456Z,15.07
2022-12-13T03:36:10.605Z,15.60
2022-12-13T03:38:39.958Z,15.27
2022-12-13T03:41:09.748Z,14.50
2022-12-13T03:43:37.425Z,15.00
2022-12-13T03:46:05.526Z,15.10
2022-12-13T03:48:33.497Z,15.73
2022-12-13T03:51:01.762Z,14.60
2022-12-13T03:53:33.521Z,16.50
2022-12-13T03:56:04.262Z,14.53
2022-12-13T03:58:35.363Z,14.57
2022-12-13T04:01:05.351Z,15.90
2022-12-13T04:03:33.186Z,15.30
2022-12-13T04:06:01.564Z,13.53
2022-12-13T04:08:29.699Z,15.10
2022-12-13T04:10:57.612Z,13.60
2022-12-13T04:13:34.652Z,14.53
2022-12-13T04:16:03.207Z,13.27
2022-12-13T04:18:31.146Z,14.70
2022-12-13T04:20:59.216Z,15.73
2022-12-13T04:23:26.874Z,14.80
2022-12-13T04:25:54.560Z,13.87
2022-12-13T04:28:23.206Z,14.70
2022-12-13T04:30:54.085Z,13.90
2022-12-13T04:33:22.252Z,14.63
2022-12-13T04:35:50.400Z,13.80
2022-12-13T04:38:18.271Z,14.00
2022-12-13T04:40:46.122Z,13.63
2022-12-13T04:43:14.470Z,14.20
2022-12-13T04:45:42.595Z,14.50
2022-12-13T04:48:11.985Z,13.53
2022-12-13T04:50:40.107Z,14.20
2022-12-13T04:53:07.973Z,14.10
2022-12-13T04:55:36.266Z,14.10
2022-12-13T04:58:04.213Z,14.80
2022-12-13T05:00:32.108Z,14.90
2022-12-13T05:03:00.422Z,15.30
2022-12-13T05:05:29.598Z,13.87
2022-12-13T05:07:57.348Z,14.17
2022-12-13T05:10:35.707Z,13.80
2022-12-13T05:13:05.727Z,13.87
2022-12-13T05:15:33.904Z,14.37
2022-12-13T05:18:09.614Z,13.20
2022-12-13T05:20:40.120Z,13.87
2022-12-13T05:23:07.846Z,14.10
2022-12-13T05:25:37.407Z,13.90
2022-12-13T05:28:09.014Z,14.20
2022-12-13T05:30:54.297Z,13.83
2022-12-13T05:33:22.007Z,14.30
2022-12-13T05:35:55.075Z,14.30
2022-12-13T05:38:27.255Z,13.37
2022-12-13T05:40:55.613Z,13.97
2022-12-13T05:43:24.264Z,13.53
2022-12-13T05:46:12.089Z,14.23
2022-12-13T05:48:39.918Z,13.60
2022-12-13T05:51:10.681Z,13.87
2022-12-13T05:53:39.421Z,13.17
2022-12-13T05:56:07.936Z,13.10
2022-12-13T05:58:36.401Z,14.53
2022-12-13T06:01:08.877Z,14.13
2022-12-13T06:03:36.853Z,14.20
2022-12-13T06:06:05.209Z,12.50
2022-12-13T06:08:34.498Z,13.63
2022-12-13T06:11:11.490Z,14.33
2022-12-13T06:13:42.847Z,14.27
2022-12-13T06:16:23.429Z,15.13
2022-12-13T06:18:56.175Z,13.03
2022-12-13T06:21:39.183Z,13.40
2022-12-13T06:24:13.064Z,14.67
2022-12-13T06:26:41.328Z,14.07
2022-12-13T06:29:10.379Z,14.00
2022-12-13T06:31:38.412Z,14.93
2022-12-13T06:34:14.295Z,13.00
2022-12-13T06:36:43.113Z,13.80
2022-12-13T06:39:12.308Z,14.83
2022-12-13T06:41:40.671Z,14.47
2022-12-13T06:44:08.947Z,13.80
2022-12-13T06:46:36.948Z,13.50
2022-12-13T06:49:08.734Z,13.40
2022-12-13T06:51:36.575Z,14.30
2022-12-13T06:54:04.573Z,13.70
2022-12-13T06:56:34.632Z,13.73
2022-12-13T06:59:02.822Z,13.90
2022-12-13T07:01:37.720Z,13.33
2022-12-13T07:04:30.288Z,12.93
2022-12-13T07:06:54.712Z,12.20
2022-12-13T07:09:22.487Z,14.33
2022-12-13T07:11:52.600Z,12.47
2022-12-13T07:14:20.553Z,13.30
2022-12-13T07:16:48.756Z,12.27
2022-12-13T07:19:23.720Z,13.60
2022-12-13T07:21:52.660Z,12.90
2022-12-13T07:24:20.689Z,13.07
2022-12-13T07:26:48.692Z,12.60
2022-12-13T07:29:22.719Z,12.17
2022-12-13T07:31:50.888Z,13.13
2022-12-13T07:34:18.939Z,12.70
2022-12-13T07:36:46.822Z,12.87
2022-12-13T07:39:14.559Z,12.90
2022-12-13T07:41:42.783Z,12.97
2022-12-13T07:44:10.606Z,13.20
2022-12-13T07:46:40.338Z,12.43
2022-12-13T07:49:08.308Z,12.67
2022-12-13T07:51:36.755Z,13.07
2022-12-13T07:54:08.311Z,12.93
2022-12-13T07:56:36.458Z,13.70
2022-12-13T07:59:04.418Z,12.83
2022-12-13T08:01:34.706Z,13.70
2022-12-13T08:04:04.959Z,13.57
2022-12-13T08:06:36.326Z,13.70
2022-12-13T08:09:04.168Z,14.30
2022-12-13T08:11:32.369Z,13.97
2022-12-13T08:14:00.036Z,14.40
2022-12-13T08:16:29.760Z,15.10
2022-12-13T08:19:02.563Z,15.53
2022-12-13T08:21:53.883Z,14.30
2022-12-13T08:24:22.186Z,15.80
2022-12-13T08:26:50.627Z,14.33
2022-12-13T08:29:22.358Z,15.77
2022-12-13T08:31:52.120Z,13.63
2022-12-13T08:34:20.132Z,15.50
2022-12-13T08:36:49.401Z,14.80
2022-12-13T08:39:17.237Z,15.40
2022-12-13T08:41:45.308Z,14.20
2022-12-13T08:44:13.216Z,14.90
2022-12-13T08:46:41.558Z,14.13
2022-12-13T08:49:09.350Z,15.27
2022-12-13T08:51:37.267Z,14.30
2022-12-13T08:54:10.452Z,14.37
2022-12-13T08:56:39.464Z,14.70
2022-12-13T08:59:11.432Z,14.30
2022-12-13T09:01:39.219Z,15.10
2022-12-13T09:04:07.012Z,14.40
2022-12-13T09:06:35.401Z,14.33
2022-12-13T09:09:03.717Z,13.83
2022-12-13T09:11:39.935Z,14.63
2022-12-13T09:14:08.175Z,14.60
2022-12-13T09:16:42.477Z,14.27
2022-12-13T09:19:25.505Z,14.50
2022-12-13T09:22:02.756Z,14.37
2022-12-13T09:24:36.304Z,13.00
2022-12-13T09:27:09.916Z,14.53
2022-12-13T09:29:38.242Z,14.30
2022-12-13T09:32:07.049Z,13.83
2022-12-13T09:34:35.030Z,13.93
2022-12-13T09:37:03.401Z,13.90
2022-12-13T09:39:31.366Z,13.83
2022-12-13T09:42:01.051Z,13.40
2022-12-13T09:44:44.161Z,13.03
2022-12-13T09:47:23.308Z,13.53
2022-12-13T09:49:53.740Z,13.00
2022-12-13T09:52:23.432Z,13.50
2022-12-13T09:54:51.628Z,13.50
2022-12-13T09:57:31.239Z,14.43
2022-12-13T10:00:02.627Z,13.73
2022-12-13T10:02:32.051Z,13.30
2022-12-13T10:05:02.102Z,13.97
2022-12-13T10:07:30.775Z,12.63
2022-12-13T10:10:01.883Z,14.73
2022-12-13T10:12:29.723Z,14.10
2022-12-13T10:14:59.510Z,13.53
2022-12-13T10:17:30.191Z,13.17
2022-12-13T10:20:06.987Z,13.87
2022-12-13T10:22:35.104Z,14.00
2022-12-13T10:25:03.949Z,13.60
2022-12-13T10:27:35.199Z,14.00
2022-12-13T10:30:06.163Z,12.50
2022-12-13T10:32:43.418Z,14.37
2022-12-13T10:35:25.564Z,14.90
2022-12-13T10:37:54.073Z,12.87
2022-12-13T10:40:32.111Z,14.03
2022-12-13T10:43:14.607Z,14.07
2022-12-13T10:45:43.087Z,14.43
2022-12-13T10:48:21.075Z,12.87
2022-12-13T10:50:58.401Z,14.97
2022-12-13T10:53:27.617Z,13.73
2022-12-13T10:55:55.888Z,13.37
2022-12-13T10:58:24.153Z,13.20
2022-12-13T11:00:52.026Z,14.03
2022-12-13T11:03:32.496Z,14.57
2022-12-13T11:06:04.916Z,14.77
2022-12-13T11:08:32.809Z,13.80
2022-12-13T11:11:01.348Z,13.47
2022-12-13T11:13:37.142Z,13.33
2022-12-13T11:16:05.774Z,14.40
2022-12-13T11:18:37.484Z,13.40
2022-12-13T11:21:05.273Z,13.83
2022-12-13T11:23:34.227Z,13.80
2022-12-13T11:26:03.318Z,13.80
2022-12-13T11:28:41.002Z,13.70
2022-12-13T11:31:12.158Z,14.60
2022-12-13T11:33:47.613Z,13.90
2022-12-13T11:36:22.336Z,14.50
2022-12-13T11:38:58.199Z,14.50
2022-12-13T11:41:32.235Z,14.20
2022-12-13T11:44:02.757Z,13.70
2022-12-13T11:46:36.835Z,13.97
2022-12-13T11:49:11.460Z,13.90
2022-12-13T11:51:41.886Z,14.87
2022-12-13T11:54:12.077Z,13.97
2022-12-13T11:56:42.861Z,14.90
2022-12-13T11:59:22.458Z,14.80
2022-12-13T12:01:55.612Z,15.60
2022-12-13T12:04:28.463Z,15.17
2022-12-13T12:07:08.294Z,15.67
2022-12-13T12:09:51.282Z,15.40
2022-12-13T12:12:22.409Z,15.00
2022-12-13T12:14:53.836Z,14.40
2022-12-13T12:17:24.662Z,14.23
2022-12-13T12:19:54.653Z,15.40
2022-12-13T12:22:30.732Z,14.60
2022-12-13T12:25:04.934Z,15.37
2022-12-13T12:27:39.282Z,13.97
2022-12-13T12:30:22.864Z,15.33
2022-12-13T12:32:54.887Z,14.97
2022-12-13T12:35:51.883Z,13.53
2022-12-13T12:38:45.514Z,14.77
2022-12-13T12:41:29.538Z,15.07
2022-12-13T12:44:01.919Z,14.80
2022-12-13T12:47:01.607Z,14.23
2022-12-13T12:49:55.256Z,14.47
2022-12-13T12:52:28.960Z,16.37
2022-12-13T12:55:03.422Z,14.77
2022-12-13T12:57:39.844Z,15.90
2022-12-13T13:00:12.327Z,14.60
2022-12-13T13:02:42.597Z,15.40
2022-12-13T13:05:17.146Z,15.80
2022-12-13T13:07:51.448Z,16.30
2022-12-13T13:10:26.776Z,15.80
2022-12-13T13:13:12.421Z,15.80
2022-12-13T13:15:58.164Z,15.83
2022-12-13T13:18:49.373Z,15.40
2022-12-13T13:21:34.001Z,15.57
2022-12-13T13:24:19.653Z,16.43
2022-12-13T13:26:48.164Z,16.90
2022-12-13T13:29:32.101Z,17.20
2022-12-13T13:32:02.115Z,15.83
2022-12-13T13:34:31.288Z,17.47
2022-12-13T13:36:59.333Z,16.13
2022-12-13T13:40:00.942Z,17.03
2022-12-13T13:42:29.369Z,17.17
2022-12-13T13:45:22.673Z,16.17
2022-12-13T13:48:14.662Z,16.60
2022-12-13T13:51:28.429Z,15.30
2022-12-13T13:54:19.501Z,16.53
2022-12-13T13:58:00.393Z,16.80
2022-12-13T14:00:18.795Z,17.17
2022-12-13T14:03:29.348Z,18.07
2022-12-13T14:06:24.840Z,15.50
2022-12-13T14:09:15.720Z,17.60
2022-12-13T14:12:09.577Z,18.17
2022-12-13T14:15:01.707Z,16.47
2022-12-13T14:18:01.579Z,18.13
2022-12-13T14:20:38.327Z,16.80
2022-12-13T14:23:09.003Z,16.60
2022-12-13T14:26:03.359Z,17.07
2022-12-13T14:28:36.875Z,18.53
2022-12-13T14:31:06.004Z,20.80
2022-12-13T14:33:33.776Z,18.80
2022-12-13T14:36:03.563Z,21.03
2022-12-13T14:38:32.853Z,20.80
2022-12-13T14:41:01.703Z,20.70
2022-12-13T14:43:30.956Z,21.47
2022-12-13T14:45:59.902Z,21.47
2022-12-13T14:48:37.492Z,21.50
2022-12-13T14:51:05.735Z,21.27
2022-12-13T14:53:38.176Z,21.87
2022-12-13T14:56:07.598Z,23.03
2022-12-13T14:58:37.484Z,24.00
2022-12-13T15:01:05.600Z,23.70
2022-12-13T15:03:35.804Z,24.30
2022-12-13T15:06:04.149Z,23.13
2022-12-13T15:08:31.844Z,22.40
2022-12-13T15:11:02.167Z,22.27
2022-12-13T15:13:34.837Z,22.40
2022-12-13T15:16:10.843Z,24.83
2022-12-13T15:18:40.660Z,22.30
2022-12-13T15:21:20.841Z,23.90
2022-12-13T15:23:49.882Z,22.70
2022-12-13T15:26:28.290Z,24.07
2022-12-13T15:28:58.416Z,22.53
2022-12-13T15:34:52.673Z,21.80
2022-12-13T15:37:28.466Z,21.63
2022-12-13T15:40:00.386Z,21.70
2022-12-13T15:42:30.869Z,22.50
2022-12-13T15:45:00.146Z,21.73
2022-12-13T15:47:29.259Z,22.80
2022-12-13T15:50:01.034Z,22.60
2022-12-13T15:52:34.648Z,21.33
2022-12-13T15:55:03.966Z,22.63
2022-12-13T15:57:32.420Z,21.50
2022-12-13T16:00:07.532Z,21.50
2022-12-13T16:02:35.995Z,21.73
2022-12-13T16:05:10.228Z,21.57
2022-12-13T16:07:40.593Z,21.70
2022-12-13T16:10:09.279Z,20.57
2022-12-13T16:12:40.273Z,22.23
2022-12-13T16:15:28.532Z,21.03
2022-12-13T16:18:06.334Z,21.50
2022-12-13T16:20:35.884Z,20.97
2022-12-13T16:23:08.991Z,21.87
2022-12-13T16:25:37.005Z,20.47
2022-12-13T16:28:05.298Z,23.30
2022-12-13T16:30:56.768Z,22.40
2022-12-13T16:33:27.313Z,20.40
2022-12-13T16:35:57.074Z,22.20
2022-12-13T16:38:27.402Z,22.70
2022-12-13T16:40:56.085Z,21.93
2022-12-13T16:43:32.905Z,20.23
2022-12-13T16:47:16.937Z,21.43
2022-12-13T16:48:52.005Z,21.20
2022-12-13T16:51:21.405Z,21.90
2022-12-13T16:53:52.871Z,22.00
2022-12-13T16:56:22.216Z,22.30
2022-12-13T16:58:50.844Z,21.03
2022-12-13T17:01:21.237Z,21.80
2022-12-13T17:03:49.109Z,20.80
2022-12-13T17:06:19.296Z,20.83
2022-12-13T17:08:48.732Z,21.90
2022-12-13T17:11:18.536Z,20.30
2022-12-13T17:13:49.427Z,20.97
2022-12-13T17:16:17.941Z,21.43
2022-12-13T17:18:45.845Z,20.37
2022-12-13T17:21:14.385Z,20.57
2022-12-13T17:23:42.143Z,21.47
2022-12-13T17:26:12.235Z,22.20
2022-12-13T17:28:40.165Z,20.80
2022-12-13T17:31:08.674Z,21.13
2022-12-13T17:33:37.343Z,21.73
2022-12-13T17:36:06.022Z,20.83
2022-12-13T17:38:33.860Z,21.40
2022-12-13T17:41:02.203Z,21.97
2022-12-13T17:43:35.624Z,21.60
2022-12-13T17:46:04.957Z,22.97
2022-12-13T17:48:39.569Z,21.20
2022-12-13T17:51:08.814Z,21.30
2022-12-13T17:53:36.879Z,20.80
2022-12-13T17:56:07.029Z,22.83
2022-12-13T17:58:36.292Z,20.47
2022-12-13T18:01:14.503Z,22.30
2022-12-13T18:03:42.654Z,21.03
2022-12-13T18:06:10.660Z,22.03
2022-12-13T18:08:39.222Z,22.20
2022-12-13T18:13:57.421Z,21.63
2022-12-13T18:16:32.039Z,21.53
2022-12-13T18:19:05.002Z,20.63
2022-12-13T18:21:32.983Z,22.07
2022-12-13T18:24:00.988Z,22.40
2022-12-13T18:26:28.683Z,22.00
2022-12-13T18:28:58.142Z,21.60
2022-12-13T18:31:26.373Z,20.77
2022-12-13T18:33:54.470Z,21.00
2022-12-13T18:36:23.134Z,21.20
2022-12-13T18:38:51.293Z,22.33
2022-12-13T18:41:20.219Z,22.33
2022-12-13T18:43:48.491Z,22.37
2022-12-13T18:46:17.954Z,21.47
2022-12-13T18:48:46.872Z,21.37
2022-12-13T18:51:14.700Z,21.03
2022-12-13T18:53:42.576Z,20.77
2022-12-13T18:56:17.882Z,20.63
2022-12-13T18:58:46.421Z,21.47
2022-12-13T19:01:15.581Z,20.53
2022-12-13T19:03:46.844Z,21.17
2022-12-13T19:06:16.527Z,21.23
2022-12-13T19:08:44.429Z,21.30
2022-12-13T19:11:12.413Z,20.60
2022-12-13T19:13:40.459Z,20.50
2022-12-13T19:16:09.458Z,20.83
2022-12-13T19:18:37.748Z,20.40
2022-12-13T19:21:08.960Z,21.73
2022-12-13T19:23:36.966Z,20.80
2022-12-13T19:26:08.232Z,21.37
2022-12-13T19:28:36.340Z,21.37
2022-12-13T19:31:05.595Z,21.80
2022-12-13T19:33:33.716Z,20.50
2022-12-13T19:36:01.719Z,22.80
2022-12-13T19:38:31.067Z,20.53
2022-12-13T19:40:58.969Z,20.90
2022-12-13T19:43:27.531Z,19.93
2022-12-13T19:45:55.637Z,20.83
2022-12-13T19:48:23.648Z,20.20
2022-12-13T19:50:51.697Z,21.53
2022-12-13T19:53:19.436Z,20.70
2022-12-13T19:55:48.771Z,20.50
2022-12-13T19:58:16.712Z,21.70
2022-12-13T20:00:44.644Z,21.17
2022-12-13T20:03:12.846Z,20.10
2022-12-13T20:05:45.502Z,21.30
2022-12-13T20:08:13.818Z,19.77
2022-12-13T20:10:41.778Z,21.10
2022-12-13T20:13:11.218Z,21.10
2022-12-13T20:15:39.876Z,21.03
2022-12-13T20:18:07.990Z,20.00
2022-12-13T20:21:02.417Z,21.83
2022-12-13T20:23:24.275Z,19.77
2022-12-13T20:26:01.124Z,21.70
2022-12-13T20:28:30.540Z,21.30
2022-12-13T20:31:07.339Z,21.20
2022-12-13T20:33:35.431Z,20.53
2022-12-13T20:36:27.631Z,21.20
2022-12-13T20:38:53.490Z,19.97
2022-12-13T20:41:21.694Z,20.40
2022-12-13T20:43:53.754Z,19.63
2022-12-13T20:46:21.826Z,20.90
2022-12-13T20:48:51.403Z,20.30
2022-12-13T20:51:20.719Z,20.50
2022-12-13T20:53:49.542Z,20.33
2022-12-13T20:56:18.419Z,19.37
2022-12-13T20:58:46.446Z,20.57
2022-12-13T21:01:20.007Z,20.87
2022-12-13T21:03:48.188Z,20.33
2022-12-13T21:06:16.116Z,20.17
2022-12-13T21:08:53.103Z,20.40
2022-12-13T21:11:27.759Z,20.40
2022-12-13T21:14:01.163Z,19.90
2022-12-13T21:16:37.155Z,20.90
2022-12-13T21:19:05.056Z,18.80
2022-12-13T21:21:32.968Z,21.10
2022-12-13T21:24:00.804Z,20.37
2022-12-13T21:26:34.911Z,21.27
2022-12-13T21:29:04.308Z,20.30
2022-12-13T21:31:32.502Z,19.83
2022-12-13T21:34:02.720Z,20.60
2022-12-13T21:36:31.908Z,20.93
2022-12-13T21:39:00.610Z,20.83
2022-12-13T21:41:28.691Z,19.73
2022-12-13T21:43:56.475Z,19.37
2022-12-13T21:46:31.319Z,20.90
2022-12-13T21:49:14.545Z,19.50
2022-12-13T21:51:47.577Z,20.07
2022-12-13T21:54:16.041Z,21.20
2022-12-13T21:57:02.015Z,19.57
2022-12-13T21:59:29.722Z,19.17
2022-12-13T22:02:15.117Z,20.83
2022-12-13T22:04:45.051Z,21.30
2022-12-13T22:07:13.912Z,19.73
2022-12-13T22:09:41.890Z,19.77
2022-12-13T22:12:10.424Z,19.47
2022-12-13T22:14:38.417Z,20.63
2022-12-13T22:17:06.385Z,19.20
2022-12-13T22:19:34.465Z,20.30
2022-12-13T22:22:03.828Z,20.33
2022-12-13T22:24:32.132Z,20.00
2022-12-13T22:27:00.075Z,20.73
2022-12-13T22:29:28.232Z,19.30
2022-12-13T22:31:56.180Z,19.20
2022-12-13T22:34:24.042Z,20.57
2022-12-13T22:36:51.765Z,19.30
2022-12-13T22:39:21.851Z,19.50
2022-12-13T22:41:50.142Z,19.67
2022-12-13T22:44:18.683Z,18.97
2022-12-13T22:46:46.605Z,18.80
2022-12-13T22:49:14.382Z,19.07
2022-12-13T22:51:42.254Z,18.80
2022-12-13T22:54:10.359Z,19.63
2022-12-13T22:56:39.541Z,19.20
2022-12-13T22:59:08.217Z,18.27
2022-12-13T23:01:37.310Z,19.90
2022-12-13T23:04:05.909Z,17.93
2022-12-13T23:06:34.340Z,18.83
2022-12-13T23:09:02.758Z,18.13
2022-12-13T23:11:48.465Z,18.10
2022-12-13T23:14:18.731Z,18.93
2022-12-13T23:16:46.447Z,18.40
2022-12-13T23:19:40.822Z,17.53
2022-12-13T23:22:06.271Z,18.87
2022-12-13T23:24:34.096Z,18.23
2022-12-13T23:27:01.896Z,18.37
2022-12-13T23:29:31.780Z,17.90
2022-12-13T23:31:59.725Z,16.70
2022-12-13T23:34:27.599Z,17.73
2022-12-13T23:36:55.600Z,17.80
2022-12-13T23:39:23.279Z,17.47
2022-12-13T23:41:51.040Z,17.90
2022-12-13T23:44:18.922Z,16.40
2022-12-13T23:46:49.094Z,18.10
2022-12-13T23:49:17.102Z,18.27
2022-12-13T23:51:45.185Z,17.13
2022-12-13T23:54:16.372Z,18.63
2022-12-13T23:56:44.320Z,18.00
2022-12-13T23:59:11.982Z,17.13
